Ross River, Canada
Current Conditions -  °F | °C
As of 8:00 AM on Saturday 22 Nov 2014 (Local Time) from CYXY Reporting Station
Broken Clouds Broken Clouds  
Wind Chill: 13°   Ceiling: 10000
Heat Index: 25°   Visibility: 15mi
Dew Point: 21°   Wind: 13mph
Humidity: 86%   Direction: 180°S
Pressure: 29.17"   Gusts: NA
Location:  61.98°N, 132.45°W
Report Text: CYXY 221600Z 18011KT 15SM SCT012 BKN100 M04/M06 A2917 RMK SC4AC3 SLP922
Loading
Personal Weather Stations






























Interactive Weather Map New forecast layout! Learn more

10-Day Weather Forecast

Advertisements
Track Severe Weather on mobile